sensor_id;sensor_type;location;lat;lon;timestamp;P1;durP1;ratioP1;P2;durP2;ratioP2
35522;SDS011;61478;50.820;4.330;2023-05-10T00:02:17;15.27;;;9.23;;
35522;SDS011;61478;50.820;4.330;2023-05-10T00:04:43;17.08;;;10.20;;
35522;SDS011;61478;50.820;4.330;2023-05-10T00:07:09;20.38;;;10.55;;
35522;SDS011;61478;50.820;4.330;2023-05-10T00:09:35;14.43;;;9.48;;
35522;SDS011;61478;50.820;4.330;2023-05-10T00:12:01;20.00;;;10.18;;
35522;SDS011;61478;50.820;4.330;2023-05-10T00:14:27;14.95;;;9.35;;
35522;SDS011;61478;50.820;4.330;2023-05-10T00:16:53;17.88;;;10.10;;
35522;SDS011;61478;50.820;4.330;2023-05-10T00:19:19;20.40;;;10.70;;
35522;SDS011;61478;50.820;4.330;2023-05-10T00:21:45;15.85;;;10.65;;
35522;SDS011;61478;50.820;4.330;2023-05-10T00:24:10;16.83;;;9.63;;
35522;SDS011;61478;50.820;4.330;2023-05-10T00:26:36;19.00;;;10.57;;
35522;SDS011;61478;50.820;4.330;2023-05-10T00:29:02;19.00;;;9.95;;
35522;SDS011;61478;50.820;4.330;2023-05-10T00:31:28;14.75;;;10.18;;
35522;SDS011;61478;50.820;4.330;2023-05-10T00:33:54;17.98;;;9.88;;
35522;SDS011;61478;50.820;4.330;2023-05-10T00:36:20;16.92;;;10.05;;
35522;SDS011;61478;50.820;4.330;2023-05-10T00:38:46;19.60;;;10.55;;
35522;SDS011;61478;50.820;4.330;2023-05-10T00:41:12;20.67;;;10.25;;
35522;SDS011;61478;50.820;4.330;2023-05-10T00:43:38;19.00;;;9.85;;
35522;SDS011;61478;50.820;4.330;2023-05-10T00:46:07;14.80;;;10.30;;
35522;SDS011;61478;50.820;4.330;2023-05-10T00:48:33;20.45;;;10.95;;
35522;SDS011;61478;50.820;4.330;2023-05-10T00:51:00;15.85;;;10.98;;
35522;SDS011;61478;50.820;4.330;2023-05-10T00:53:26;20.10;;;10.73;;
35522;SDS011;61478;50.820;4.330;2023-05-10T00:55:52;21.67;;;12.18;;
35522;SDS011;61478;50.820;4.330;2023-05-10T00:58:19;16.45;;;10.65;;
35522;SDS011;61478;50.820;4.330;2023-05-10T01:00:45;21.92;;;11.43;;
35522;SDS011;61478;50.820;4.330;2023-05-10T01:03:13;18.42;;;10.98;;
35522;SDS011;61478;50.820;4.330;2023-05-10T01:05:39;17.08;;;11.07;;
35522;SDS011;61478;50.820;4.330;2023-05-10T01:08:05;13.75;;;10.15;;
35522;SDS011;61478;50.820;4.330;2023-05-10T01:10:33;20.15;;;11.32;;
35522;SDS011;61478;50.820;4.330;2023-05-10T01:13:00;19.20;;;11.60;;
35522;SDS011;61478;50.820;4.330;2023-05-10T01:15:26;19.60;;;11.40;;
35522;SDS011;61478;50.820;4.330;2023-05-10T01:17:52;23.08;;;12.05;;
35522;SDS011;61478;50.820;4.330;2023-05-10T01:20:19;16.38;;;11.43;;
35522;SDS011;61478;50.820;4.330;2023-05-10T01:23:03;22.35;;;12.52;;
35522;SDS011;61478;50.820;4.330;2023-05-10T01:34:21;18.55;;;13.25;;
35522;SDS011;61478;50.820;4.330;2023-05-10T01:36:55;20.58;;;12.27;;
35522;SDS011;61478;50.820;4.330;2023-05-10T01:39:24;21.67;;;13.65;;
35522;SDS011;61478;50.820;4.330;2023-05-10T01:42:03;20.45;;;13.77;;
35522;SDS011;61478;50.820;4.330;2023-05-10T01:50:18;23.15;;;15.15;;
35522;SDS011;61478;50.820;4.330;2023-05-10T01:52:54;21.92;;;14.43;;
35522;SDS011;61478;50.820;4.330;2023-05-10T01:55:24;24.23;;;14.32;;
35522;SDS011;61478;50.820;4.330;2023-05-10T01:57:55;20.80;;;13.82;;
35522;SDS011;61478;50.820;4.330;2023-05-10T02:00:29;19.98;;;13.55;;
35522;SDS011;61478;50.820;4.330;2023-05-10T02:02:56;19.95;;;14.68;;
35522;SDS011;61478;50.820;4.330;2023-05-10T02:05:25;20.48;;;14.23;;
35522;SDS011;61478;50.820;4.330;2023-05-10T02:07:54;18.75;;;14.50;;
35522;SDS011;61478;50.820;4.330;2023-05-10T02:10:21;24.35;;;14.77;;
35522;SDS011;61478;50.820;4.330;2023-05-10T02:12:47;19.52;;;13.93;;
35522;SDS011;61478;50.820;4.330;2023-05-10T02:15:17;20.48;;;14.25;;
35522;SDS011;61478;50.820;4.330;2023-05-10T02:17:46;22.58;;;14.23;;
35522;SDS011;61478;50.820;4.330;2023-05-10T02:20:13;20.45;;;14.32;;
35522;SDS011;61478;50.820;4.330;2023-05-10T02:22:41;22.20;;;15.25;;
35522;SDS011;61478;50.820;4.330;2023-05-10T02:25:08;20.50;;;14.38;;
35522;SDS011;61478;50.820;4.330;2023-05-10T02:27:36;21.80;;;15.13;;
35522;SDS011;61478;50.820;4.330;2023-05-10T02:30:04;22.27;;;13.68;;
35522;SDS011;61478;50.820;4.330;2023-05-10T02:32:32;19.50;;;13.85;;
35522;SDS011;61478;50.820;4.330;2023-05-10T02:35:00;18.88;;;14.52;;
35522;SDS011;61478;50.820;4.330;2023-05-10T02:37:28;17.75;;;12.63;;
35522;SDS011;61478;50.820;4.330;2023-05-10T02:39:54;18.80;;;12.23;;
35522;SDS011;61478;50.820;4.330;2023-05-10T02:42:23;17.48;;;11.88;;
35522;SDS011;61478;50.820;4.330;2023-05-10T02:44:59;16.98;;;11.88;;
35522;SDS011;61478;50.820;4.330;2023-05-10T02:47:26;20.95;;;13.02;;
35522;SDS011;61478;50.820;4.330;2023-05-10T02:49:53;17.83;;;12.02;;
35522;SDS011;61478;50.820;4.330;2023-05-10T02:52:21;16.58;;;12.40;;
35522;SDS011;61478;50.820;4.330;2023-05-10T02:54:52;16.90;;;12.02;;
35522;SDS011;61478;50.820;4.330;2023-05-10T02:57:27;16.42;;;11.70;;
35522;SDS011;61478;50.820;4.330;2023-05-10T02:59:56;17.27;;;11.68;;
35522;SDS011;61478;50.820;4.330;2023-05-10T03:02:23;20.38;;;12.88;;
35522;SDS011;61478;50.820;4.330;2023-05-10T03:04:49;16.27;;;12.05;;
35522;SDS011;61478;50.820;4.330;2023-05-10T03:07:15;17.55;;;12.90;;
35522;SDS011;61478;50.820;4.330;2023-05-10T03:09:44;21.25;;;12.98;;
35522;SDS011;61478;50.820;4.330;2023-05-10T03:12:11;18.25;;;12.25;;
35522;SDS011;61478;50.820;4.330;2023-05-10T03:20:25;18.17;;;13.07;;
35522;SDS011;61478;50.820;4.330;2023-05-10T03:23:00;21.08;;;13.20;;
35522;SDS011;61478;50.820;4.330;2023-05-10T03:25:48;19.08;;;13.77;;
35522;SDS011;61478;50.820;4.330;2023-05-10T03:28:18;19.92;;;14.75;;
35522;SDS011;61478;50.820;4.330;2023-05-10T03:30:45;21.90;;;14.25;;
35522;SDS011;61478;50.820;4.330;2023-05-10T03:33:12;22.20;;;14.73;;
35522;SDS011;61478;50.820;4.330;2023-05-10T03:35:39;24.98;;;14.60;;
35522;SDS011;61478;50.820;4.330;2023-05-10T03:38:05;20.27;;;14.95;;
35522;SDS011;61478;50.820;4.330;2023-05-10T03:40:31;25.70;;;16.10;;
35522;SDS011;61478;50.820;4.330;2023-05-10T03:43:00;21.70;;;16.35;;
35522;SDS011;61478;50.820;4.330;2023-05-10T03:45:26;22.65;;;16.27;;
35522;SDS011;61478;50.820;4.330;2023-05-10T03:47:52;24.77;;;18.48;;
35522;SDS011;61478;50.820;4.330;2023-05-10T03:50:19;24.08;;;16.90;;
35522;SDS011;61478;50.820;4.330;2023-05-10T03:52:45;25.63;;;17.98;;
35522;SDS011;61478;50.820;4.330;2023-05-10T03:55:11;25.27;;;18.33;;
35522;SDS011;61478;50.820;4.330;2023-05-10T03:57:37;27.00;;;18.55;;
35522;SDS011;61478;50.820;4.330;2023-05-10T04:00:03;26.85;;;19.02;;
35522;SDS011;61478;50.820;4.330;2023-05-10T04:02:30;28.17;;;19.85;;
35522;SDS011;61478;50.820;4.330;2023-05-10T04:04:56;26.23;;;18.70;;
35522;SDS011;61478;50.820;4.330;2023-05-10T04:07:22;30.15;;;18.75;;
35522;SDS011;61478;50.820;4.330;2023-05-10T04:09:49;27.15;;;18.70;;
35522;SDS011;61478;50.820;4.330;2023-05-10T04:12:15;25.27;;;18.85;;
35522;SDS011;61478;50.820;4.330;2023-05-10T04:14:40;29.00;;;18.35;;
35522;SDS011;61478;50.820;4.330;2023-05-10T04:17:06;27.15;;;18.92;;
35522;SDS011;61478;50.820;4.330;2023-05-10T04:19:32;30.05;;;18.67;;
35522;SDS011;61478;50.820;4.330;2023-05-10T04:21:59;30.33;;;20.63;;
35522;SDS011;61478;50.820;4.330;2023-05-10T04:24:25;31.50;;;19.08;;
35522;SDS011;61478;50.820;4.330;2023-05-10T04:26:51;31.10;;;20.50;;
35522;SDS011;61478;50.820;4.330;2023-05-10T04:29:16;36.20;;;21.20;;
35522;SDS011;61478;50.820;4.330;2023-05-10T04:31:42;31.50;;;20.27;;
35522;SDS011;61478;50.820;4.330;2023-05-10T04:34:08;27.75;;;20.58;;
35522;SDS011;61478;50.820;4.330;2023-05-10T04:36:34;30.38;;;19.80;;
35522;SDS011;61478;50.820;4.330;2023-05-10T04:39:02;27.80;;;20.27;;
35522;SDS011;61478;50.820;4.330;2023-05-10T04:41:29;31.10;;;21.67;;
35522;SDS011;61478;50.820;4.330;2023-05-10T04:43:55;31.33;;;20.65;;
35522;SDS011;61478;50.820;4.330;2023-05-10T04:46:21;27.15;;;20.63;;
35522;SDS011;61478;50.820;4.330;2023-05-10T04:48:47;29.65;;;19.85;;
35522;SDS011;61478;50.820;4.330;2023-05-10T04:51:13;26.48;;;18.52;;
35522;SDS011;61478;50.820;4.330;2023-05-10T04:53:39;21.33;;;14.68;;
35522;SDS011;61478;50.820;4.330;2023-05-10T04:56:05;21.48;;;14.27;;
35522;SDS011;61478;50.820;4.330;2023-05-10T04:58:31;21.13;;;15.27;;
35522;SDS011;61478;50.820;4.330;2023-05-10T05:01:04;23.00;;;13.07;;
35522;SDS011;61478;50.820;4.330;2023-05-10T05:03:31;18.17;;;11.73;;
35522;SDS011;61478;50.820;4.330;2023-05-10T05:05:57;19.73;;;12.55;;
35522;SDS011;61478;50.820;4.330;2023-05-10T05:08:23;19.08;;;12.10;;
35522;SDS011;61478;50.820;4.330;2023-05-10T05:10:49;18.00;;;12.32;;
35522;SDS011;61478;50.820;4.330;2023-05-10T05:13:15;16.80;;;13.02;;
35522;SDS011;61478;50.820;4.330;2023-05-10T05:15:41;18.73;;;13.20;;
35522;SDS011;61478;50.820;4.330;2023-05-10T05:18:07;19.00;;;14.27;;
35522;SDS011;61478;50.820;4.330;2023-05-10T05:20:33;19.98;;;13.95;;
35522;SDS011;61478;50.820;4.330;2023-05-10T05:23:00;25.08;;;14.02;;
35522;SDS011;61478;50.820;4.330;2023-05-10T05:25:26;20.70;;;13.68;;
35522;SDS011;61478;50.820;4.330;2023-05-10T05:27:52;24.85;;;15.63;;
35522;SDS011;61478;50.820;4.330;2023-05-10T05:30:18;26.52;;;16.70;;
35522;SDS011;61478;50.820;4.330;2023-05-10T05:32:45;23.40;;;13.82;;
35522;SDS011;61478;50.820;4.330;2023-05-10T05:35:12;23.63;;;16.48;;
35522;SDS011;61478;50.820;4.330;2023-05-10T05:37:38;24.90;;;16.23;;
35522;SDS011;61478;50.820;4.330;2023-05-10T05:40:04;29.73;;;17.48;;
35522;SDS011;61478;50.820;4.330;2023-05-10T05:42:31;27.80;;;16.55;;
35522;SDS011;61478;50.820;4.330;2023-05-10T05:44:57;26.13;;;17.05;;
35522;SDS011;61478;50.820;4.330;2023-05-10T05:47:24;24.52;;;17.40;;
35522;SDS011;61478;50.820;4.330;2023-05-10T05:49:50;23.15;;;16.75;;
35522;SDS011;61478;50.820;4.330;2023-05-10T05:52:16;28.50;;;18.08;;
35522;SDS011;61478;50.820;4.330;2023-05-10T05:54:42;34.55;;;19.48;;
35522;SDS011;61478;50.820;4.330;2023-05-10T05:57:07;30.52;;;15.95;;
35522;SDS011;61478;50.820;4.330;2023-05-10T05:59:37;26.92;;;15.48;;
35522;SDS011;61478;50.820;4.330;2023-05-10T06:02:07;29.10;;;15.57;;
35522;SDS011;61478;50.820;4.330;2023-05-10T06:04:33;27.75;;;16.40;;
35522;SDS011;61478;50.820;4.330;2023-05-10T06:06:59;30.25;;;15.18;;
35522;SDS011;61478;50.820;4.330;2023-05-10T06:09:25;30.80;;;15.45;;
35522;SDS011;61478;50.820;4.330;2023-05-10T06:11:51;27.00;;;14.05;;
35522;SDS011;61478;50.820;4.330;2023-05-10T06:14:17;22.00;;;11.93;;
35522;SDS011;61478;50.820;4.330;2023-05-10T06:16:45;21.50;;;10.55;;
35522;SDS011;61478;50.820;4.330;2023-05-10T06:19:11;23.85;;;11.48;;
35522;SDS011;61478;50.820;4.330;2023-05-10T06:21:37;22.20;;;9.70;;
35522;SDS011;61478;50.820;4.330;2023-05-10T06:24:03;15.88;;;9.70;;
35522;SDS011;61478;50.820;4.330;2023-05-10T06:26:30;20.15;;;9.05;;
35522;SDS011;61478;50.820;4.330;2023-05-10T06:28:56;19.15;;;9.15;;
35522;SDS011;61478;50.820;4.330;2023-05-10T06:31:22;16.00;;;9.15;;
35522;SDS011;61478;50.820;4.330;2023-05-10T06:33:48;13.52;;;8.70;;
35522;SDS011;61478;50.820;4.330;2023-05-10T06:36:14;13.57;;;8.93;;
35522;SDS011;61478;50.820;4.330;2023-05-10T06:38:39;14.60;;;8.45;;
35522;SDS011;61478;50.820;4.330;2023-05-10T06:41:05;14.18;;;8.80;;
35522;SDS011;61478;50.820;4.330;2023-05-10T06:43:31;17.38;;;8.15;;
35522;SDS011;61478;50.820;4.330;2023-05-10T06:45:57;17.17;;;9.85;;
35522;SDS011;61478;50.820;4.330;2023-05-10T06:48:23;13.90;;;8.57;;
35522;SDS011;61478;50.820;4.330;2023-05-10T06:50:49;14.02;;;9.10;;
35522;SDS011;61478;50.820;4.330;2023-05-10T06:53:15;12.80;;;9.15;;
35522;SDS011;61478;50.820;4.330;2023-05-10T06:55:40;15.93;;;9.82;;
35522;SDS011;61478;50.820;4.330;2023-05-10T06:58:06;18.60;;;10.23;;
35522;SDS011;61478;50.820;4.330;2023-05-10T07:00:32;21.42;;;11.00;;
35522;SDS011;61478;50.820;4.330;2023-05-10T07:02:58;14.65;;;10.60;;
35522;SDS011;61478;50.820;4.330;2023-05-10T07:05:24;20.75;;;10.93;;
35522;SDS011;61478;50.820;4.330;2023-05-10T07:07:50;18.25;;;11.82;;
35522;SDS011;61478;50.820;4.330;2023-05-10T07:10:16;17.15;;;11.82;;
35522;SDS011;61478;50.820;4.330;2023-05-10T07:12:42;18.10;;;11.82;;
35522;SDS011;61478;50.820;4.330;2023-05-10T07:15:08;22.10;;;11.45;;
35522;SDS011;61478;50.820;4.330;2023-05-10T07:17:34;21.70;;;12.63;;
35522;SDS011;61478;50.820;4.330;2023-05-10T07:20:00;23.92;;;13.20;;
35522;SDS011;61478;50.820;4.330;2023-05-10T07:22:26;22.65;;;14.07;;
35522;SDS011;61478;50.820;4.330;2023-05-10T07:24:52;25.92;;;12.93;;
35522;SDS011;61478;50.820;4.330;2023-05-10T07:27:18;18.67;;;11.82;;
35522;SDS011;61478;50.820;4.330;2023-05-10T07:29:44;25.45;;;11.45;;
35522;SDS011;61478;50.820;4.330;2023-05-10T07:32:10;25.42;;;12.23;;
35522;SDS011;61478;50.820;4.330;2023-05-10T07:34:36;19.05;;;11.48;;
35522;SDS011;61478;50.820;4.330;2023-05-10T07:37:02;28.55;;;12.20;;
35522;SDS011;61478;50.820;4.330;2023-05-10T07:39:28;19.83;;;11.23;;
35522;SDS011;61478;50.820;4.330;2023-05-10T07:41:54;20.90;;;11.18;;
35522;SDS011;61478;50.820;4.330;2023-05-10T07:44:20;15.23;;;9.63;;
35522;SDS011;61478;50.820;4.330;2023-05-10T07:46:47;17.02;;;9.73;;
35522;SDS011;61478;50.820;4.330;2023-05-10T07:49:13;13.75;;;9.65;;
35522;SDS011;61478;50.820;4.330;2023-05-10T07:51:39;17.17;;;9.88;;
35522;SDS011;61478;50.820;4.330;2023-05-10T07:54:05;15.93;;;9.15;;
35522;SDS011;61478;50.820;4.330;2023-05-10T07:56:31;18.08;;;9.82;;
35522;SDS011;61478;50.820;4.330;2023-05-10T07:59:01;13.65;;;8.93;;
35522;SDS011;61478;50.820;4.330;2023-05-10T08:01:32;14.00;;;8.75;;
35522;SDS011;61478;50.820;4.330;2023-05-10T08:03:58;14.73;;;7.78;;
35522;SDS011;61478;50.820;4.330;2023-05-10T08:06:25;15.80;;;8.57;;
35522;SDS011;61478;50.820;4.330;2023-05-10T08:08:54;14.90;;;7.90;;
35522;SDS011;61478;50.820;4.330;2023-05-10T08:11:20;11.52;;;7.22;;
35522;SDS011;61478;50.820;4.330;2023-05-10T08:13:47;13.27;;;8.00;;
35522;SDS011;61478;50.820;4.330;2023-05-10T08:16:15;11.82;;;6.38;;
35522;SDS011;61478;50.820;4.330;2023-05-10T08:18:42;9.73;;;6.55;;
35522;SDS011;61478;50.820;4.330;2023-05-10T08:21:09;10.57;;;6.47;;
35522;SDS011;61478;50.820;4.330;2023-05-10T08:23:36;13.85;;;6.53;;
35522;SDS011;61478;50.820;4.330;2023-05-10T08:26:02;12.38;;;5.80;;
35522;SDS011;61478;50.820;4.330;2023-05-10T08:28:28;7.75;;;5.53;;
35522;SDS011;61478;50.820;4.330;2023-05-10T08:30:54;6.70;;;5.40;;
35522;SDS011;61478;50.820;4.330;2023-05-10T08:33:20;7.43;;;5.57;;
35522;SDS011;61478;50.820;4.330;2023-05-10T08:35:46;9.10;;;4.88;;
35522;SDS011;61478;50.820;4.330;2023-05-10T08:38:12;8.65;;;5.57;;
35522;SDS011;61478;50.820;4.330;2023-05-10T08:40:38;7.57;;;5.88;;
35522;SDS011;61478;50.820;4.330;2023-05-10T08:43:07;6.70;;;5.90;;
35522;SDS011;61478;50.820;4.330;2023-05-10T08:45:41;7.35;;;5.85;;
35522;SDS011;61478;50.820;4.330;2023-05-10T08:48:10;9.07;;;6.88;;
35522;SDS011;61478;50.820;4.330;2023-05-10T08:50:37;9.35;;;6.45;;
35522;SDS011;61478;50.820;4.330;2023-05-10T08:53:06;9.63;;;7.10;;
35522;SDS011;61478;50.820;4.330;2023-05-10T08:55:37;11.05;;;7.63;;
35522;SDS011;61478;50.820;4.330;2023-05-10T08:58:07;8.77;;;7.38;;
35522;SDS011;61478;50.820;4.330;2023-05-10T09:00:34;10.77;;;7.22;;
35522;SDS011;61478;50.820;4.330;2023-05-10T09:03:02;10.43;;;8.02;;
35522;SDS011;61478;50.820;4.330;2023-05-10T09:05:29;8.82;;;7.93;;
35522;SDS011;61478;50.820;4.330;2023-05-10T09:07:55;8.70;;;7.53;;
35522;SDS011;61478;50.820;4.330;2023-05-10T09:10:21;9.63;;;7.75;;
35522;SDS011;61478;50.820;4.330;2023-05-10T09:12:51;10.43;;;7.90;;
35522;SDS011;61478;50.820;4.330;2023-05-10T09:15:18;10.00;;;7.82;;
35522;SDS011;61478;50.820;4.330;2023-05-10T09:17:45;11.20;;;7.63;;
35522;SDS011;61478;50.820;4.330;2023-05-10T09:20:12;11.35;;;9.10;;
35522;SDS011;61478;50.820;4.330;2023-05-10T09:22:38;9.07;;;6.38;;
35522;SDS011;61478;50.820;4.330;2023-05-10T09:25:10;9.20;;;6.45;;
35522;SDS011;61478;50.820;4.330;2023-05-10T09:27:38;7.80;;;5.97;;
35522;SDS011;61478;50.820;4.330;2023-05-10T09:30:05;12.55;;;7.35;;
35522;SDS011;61478;50.820;4.330;2023-05-10T09:32:39;9.07;;;6.10;;
35522;SDS011;61478;50.820;4.330;2023-05-10T09:35:10;7.13;;;6.40;;
35522;SDS011;61478;50.820;4.330;2023-05-10T09:37:41;9.45;;;5.90;;
35522;SDS011;61478;50.820;4.330;2023-05-10T09:40:14;7.53;;;6.60;;
35522;SDS011;61478;50.820;4.330;2023-05-10T09:45:18;11.02;;;9.27;;
35522;SDS011;61478;50.820;4.330;2023-05-10T09:47:45;9.35;;;7.30;;
35522;SDS011;61478;50.820;4.330;2023-05-10T09:50:11;8.50;;;6.32;;
35522;SDS011;61478;50.820;4.330;2023-05-10T09:52:47;7.90;;;6.80;;
35522;SDS011;61478;50.820;4.330;2023-05-10T09:55:19;9.45;;;6.45;;
35522;SDS011;61478;50.820;4.330;2023-05-10T09:57:48;10.57;;;8.00;;
35522;SDS011;61478;50.820;4.330;2023-05-10T10:00:23;10.75;;;8.65;;
35522;SDS011;61478;50.820;4.330;2023-05-10T10:02:56;9.38;;;7.90;;
35522;SDS011;61478;50.820;4.330;2023-05-10T10:05:29;10.25;;;8.65;;
35522;SDS011;61478;50.820;4.330;2023-05-10T10:07:57;11.02;;;8.93;;
35522;SDS011;61478;50.820;4.330;2023-05-10T10:10:26;14.77;;;9.32;;
35522;SDS011;61478;50.820;4.330;2023-05-10T10:12:55;10.88;;;9.75;;
35522;SDS011;61478;50.820;4.330;2023-05-10T10:15:23;9.45;;;7.88;;
35522;SDS011;61478;50.820;4.330;2023-05-10T10:17:50;10.75;;;9.52;;
35522;SDS011;61478;50.820;4.330;2023-05-10T10:20:17;10.10;;;8.55;;
35522;SDS011;61478;50.820;4.330;2023-05-10T10:22:46;11.43;;;8.27;;
35522;SDS011;61478;50.820;4.330;2023-05-10T10:25:14;8.30;;;7.28;;
35522;SDS011;61478;50.820;4.330;2023-05-10T10:33:29;10.88;;;7.38;;
35522;SDS011;61478;50.820;4.330;2023-05-10T10:36:15;8.60;;;7.05;;
35522;SDS011;61478;50.820;4.330;2023-05-10T10:52:23;14.15;;;9.10;;
35522;SDS011;61478;50.820;4.330;2023-05-10T10:57:45;19.23;;;8.30;;
35522;SDS011;61478;50.820;4.330;2023-05-10T11:03:10;14.32;;;8.95;;
35522;SDS011;61478;50.820;4.330;2023-05-10T11:08:14;13.70;;;8.32;;
35522;SDS011;61478;50.820;4.330;2023-05-10T11:13:45;12.30;;;8.38;;
35522;SDS011;61478;50.820;4.330;2023-05-10T11:18:37;10.98;;;7.57;;
35522;SDS011;61478;50.820;4.330;2023-05-10T11:21:03;12.45;;;9.40;;
35522;SDS011;61478;50.820;4.330;2023-05-10T11:23:47;10.88;;;8.75;;
35522;SDS011;61478;50.820;4.330;2023-05-10T11:26:16;10.20;;;7.35;;
35522;SDS011;61478;50.820;4.330;2023-05-10T11:28:43;11.32;;;6.65;;
35522;SDS011;61478;50.820;4.330;2023-05-10T11:31:16;11.45;;;7.53;;
35522;SDS011;61478;50.820;4.330;2023-05-10T11:33:43;8.63;;;7.13;;
35522;SDS011;61478;50.820;4.330;2023-05-10T11:36:17;8.40;;;6.75;;
35522;SDS011;61478;50.820;4.330;2023-05-10T11:38:45;10.63;;;7.32;;
35522;SDS011;61478;50.820;4.330;2023-05-10T11:41:11;7.70;;;5.70;;
35522;SDS011;61478;50.820;4.330;2023-05-10T11:43:40;6.47;;;5.88;;
35522;SDS011;61478;50.820;4.330;2023-05-10T11:46:07;12.77;;;7.65;;
35522;SDS011;61478;50.820;4.330;2023-05-10T11:48:35;8.07;;;6.70;;
35522;SDS011;61478;50.820;4.330;2023-05-10T11:51:03;9.25;;;7.57;;
35522;SDS011;61478;50.820;4.330;2023-05-10T11:53:30;7.82;;;6.97;;
35522;SDS011;61478;50.820;4.330;2023-05-10T11:56:07;17.17;;;9.55;;
35522;SDS011;61478;50.820;4.330;2023-05-10T11:58:34;10.55;;;8.52;;
35522;SDS011;61478;50.820;4.330;2023-05-10T12:01:02;12.55;;;10.30;;
35522;SDS011;61478;50.820;4.330;2023-05-10T12:03:28;11.50;;;8.98;;
35522;SDS011;61478;50.820;4.330;2023-05-10T12:05:55;12.05;;;9.50;;
35522;SDS011;61478;50.820;4.330;2023-05-10T12:08:23;12.57;;;10.80;;
35522;SDS011;61478;50.820;4.330;2023-05-10T12:10:51;10.73;;;9.63;;
35522;SDS011;61478;50.820;4.330;2023-05-10T12:13:18;10.80;;;9.68;;
35522;SDS011;61478;50.820;4.330;2023-05-10T12:15:45;10.25;;;9.20;;
35522;SDS011;61478;50.820;4.330;2023-05-10T12:18:12;9.07;;;8.13;;
35522;SDS011;61478;50.820;4.330;2023-05-10T12:20:39;12.23;;;9.65;;
35522;SDS011;61478;50.820;4.330;2023-05-10T12:23:05;10.52;;;8.48;;
35522;SDS011;61478;50.820;4.330;2023-05-10T12:25:33;12.52;;;8.38;;
35522;SDS011;61478;50.820;4.330;2023-05-10T12:28:00;11.65;;;9.52;;
35522;SDS011;61478;50.820;4.330;2023-05-10T12:30:29;10.98;;;9.95;;
35522;SDS011;61478;50.820;4.330;2023-05-10T12:33:02;11.20;;;8.77;;
35522;SDS011;61478;50.820;4.330;2023-05-10T12:35:45;17.40;;;15.13;;
35522;SDS011;61478;50.820;4.330;2023-05-10T12:40:57;10.65;;;8.82;;
35522;SDS011;61478;50.820;4.330;2023-05-10T12:43:24;8.95;;;7.88;;
35522;SDS011;61478;50.820;4.330;2023-05-10T12:45:50;7.22;;;5.60;;
35522;SDS011;61478;50.820;4.330;2023-05-10T12:48:16;8.18;;;6.50;;
35522;SDS011;61478;50.820;4.330;2023-05-10T12:50:42;9.15;;;6.68;;
35522;SDS011;61478;50.820;4.330;2023-05-10T12:53:07;7.07;;;6.20;;
35522;SDS011;61478;50.820;4.330;2023-05-10T12:55:33;15.85;;;6.90;;
35522;SDS011;61478;50.820;4.330;2023-05-10T12:57:59;7.68;;;5.82;;
35522;SDS011;61478;50.820;4.330;2023-05-10T13:00:28;9.43;;;7.18;;
35522;SDS011;61478;50.820;4.330;2023-05-10T13:02:54;5.38;;;4.45;;
35522;SDS011;61478;50.820;4.330;2023-05-10T13:05:20;10.68;;;5.10;;
35522;SDS011;61478;50.820;4.330;2023-05-10T13:07:46;12.63;;;6.13;;
35522;SDS011;61478;50.820;4.330;2023-05-10T13:10:11;15.90;;;6.32;;
35522;SDS011;61478;50.820;4.330;2023-05-10T13:12:37;13.77;;;5.05;;
35522;SDS011;61478;50.820;4.330;2023-05-10T13:17:42;7.70;;;5.28;;
35522;SDS011;61478;50.820;4.330;2023-05-10T13:20:10;9.35;;;5.55;;
35522;SDS011;61478;50.820;4.330;2023-05-10T13:22:36;8.80;;;5.78;;
35522;SDS011;61478;50.820;4.330;2023-05-10T13:25:03;8.13;;;6.10;;
35522;SDS011;61478;50.820;4.330;2023-05-10T13:27:29;8.85;;;5.88;;
35522;SDS011;61478;50.820;4.330;2023-05-10T13:29:54;19.75;;;8.02;;
35522;SDS011;61478;50.820;4.330;2023-05-10T13:32:20;13.32;;;6.95;;
35522;SDS011;61478;50.820;4.330;2023-05-10T13:34:46;12.00;;;7.43;;
35522;SDS011;61478;50.820;4.330;2023-05-10T13:37:12;9.77;;;6.55;;
35522;SDS011;61478;50.820;4.330;2023-05-10T13:39:38;8.02;;;5.55;;
35522;SDS011;61478;50.820;4.330;2023-05-10T13:42:04;11.88;;;6.85;;
35522;SDS011;61478;50.820;4.330;2023-05-10T13:44:30;13.60;;;7.47;;
35522;SDS011;61478;50.820;4.330;2023-05-10T13:46:58;9.80;;;6.97;;
35522;SDS011;61478;50.820;4.330;2023-05-10T13:49:24;13.88;;;7.63;;
35522;SDS011;61478;50.820;4.330;2023-05-10T13:51:50;14.98;;;8.18;;
35522;SDS011;61478;50.820;4.330;2023-05-10T13:54:17;10.70;;;7.68;;
35522;SDS011;61478;50.820;4.330;2023-05-10T13:56:45;10.07;;;8.52;;
35522;SDS011;61478;50.820;4.330;2023-05-10T13:59:12;11.48;;;8.70;;
35522;SDS011;61478;50.820;4.330;2023-05-10T14:01:39;10.25;;;8.68;;
35522;SDS011;61478;50.820;4.330;2023-05-10T14:04:06;13.00;;;10.02;;
35522;SDS011;61478;50.820;4.330;2023-05-10T14:06:35;13.35;;;10.10;;
35522;SDS011;61478;50.820;4.330;2023-05-10T14:09:01;12.43;;;9.43;;
35522;SDS011;61478;50.820;4.330;2023-05-10T14:11:28;12.52;;;10.32;;
35522;SDS011;61478;50.820;4.330;2023-05-10T14:13:54;16.55;;;10.48;;
35522;SDS011;61478;50.820;4.330;2023-05-10T14:16:20;21.45;;;12.82;;
35522;SDS011;61478;50.820;4.330;2023-05-10T14:18:46;16.70;;;11.13;;
35522;SDS011;61478;50.820;4.330;2023-05-10T14:21:12;18.30;;;11.90;;
35522;SDS011;61478;50.820;4.330;2023-05-10T14:23:38;19.50;;;12.00;;
35522;SDS011;61478;50.820;4.330;2023-05-10T14:26:04;16.95;;;11.00;;
35522;SDS011;61478;50.820;4.330;2023-05-10T14:28:30;13.20;;;9.77;;
35522;SDS011;61478;50.820;4.330;2023-05-10T14:30:56;16.08;;;10.80;;
35522;SDS011;61478;50.820;4.330;2023-05-10T14:33:22;14.30;;;9.73;;
35522;SDS011;61478;50.820;4.330;2023-05-10T14:35:47;14.85;;;10.40;;
35522;SDS011;61478;50.820;4.330;2023-05-10T14:38:14;14.82;;;10.95;;
35522;SDS011;61478;50.820;4.330;2023-05-10T14:40:40;14.95;;;11.23;;
35522;SDS011;61478;50.820;4.330;2023-05-10T14:43:05;15.40;;;11.52;;
35522;SDS011;61478;50.820;4.330;2023-05-10T14:45:31;16.55;;;12.35;;
35522;SDS011;61478;50.820;4.330;2023-05-10T14:47:57;23.02;;;12.10;;
35522;SDS011;61478;50.820;4.330;2023-05-10T14:50:24;20.50;;;12.57;;
35522;SDS011;61478;50.820;4.330;2023-05-10T14:52:50;22.00;;;11.85;;
35522;SDS011;61478;50.820;4.330;2023-05-10T14:55:16;16.40;;;11.10;;
35522;SDS011;61478;50.820;4.330;2023-05-10T14:57:42;16.25;;;12.32;;
35522;SDS011;61478;50.820;4.330;2023-05-10T15:00:09;16.27;;;12.23;;
35522;SDS011;61478;50.820;4.330;2023-05-10T15:02:35;15.68;;;11.32;;
35522;SDS011;61478;50.820;4.330;2023-05-10T15:05:01;14.82;;;10.73;;
35522;SDS011;61478;50.820;4.330;2023-05-10T15:07:27;14.65;;;10.52;;
35522;SDS011;61478;50.820;4.330;2023-05-10T15:09:53;20.13;;;10.07;;
35522;SDS011;61478;50.820;4.330;2023-05-10T15:12:19;15.23;;;6.72;;
35522;SDS011;61478;50.820;4.330;2023-05-10T15:14:45;13.10;;;7.18;;
35522;SDS011;61478;50.820;4.330;2023-05-10T15:17:11;12.90;;;7.35;;
35522;SDS011;61478;50.820;4.330;2023-05-10T15:19:37;7.68;;;5.78;;
35522;SDS011;61478;50.820;4.330;2023-05-10T15:22:04;14.30;;;5.93;;
35522;SDS011;61478;50.820;4.330;2023-05-10T15:24:30;18.48;;;6.25;;
35522;SDS011;61478;50.820;4.330;2023-05-10T15:26:56;12.45;;;6.10;;
35522;SDS011;61478;50.820;4.330;2023-05-10T15:29:22;12.02;;;5.05;;
35522;SDS011;61478;50.820;4.330;2023-05-10T15:31:49;12.00;;;4.80;;
35522;SDS011;61478;50.820;4.330;2023-05-10T15:34:16;7.75;;;3.88;;